Time;durP1;ratioP1;P1;durP2;ratioP2;P2;SDS_P1;SDS_P2;PMS_P1;PMS_P2;Temp;Humidity;BMP_temperature;BMP_pressure;BME280_temperature;BME280_humidity;BME280_pressure;Samples;Min_cycle;Max_cycle;Signal;HPM_P1;HPM_P2
2023/02/02 00:00:54;;;;;;;3.72;2.35;;;;;;;;;;5004341;28;20044;-57
2023/02/02 00:03:20;;;;;;;3.07;2.20;;;;;;;;;;4987051;28;20043;-57
2023/02/02 00:05:45;;;;;;;4.10;2.30;;;;;;;;;;4987041;28;20273;-57
2023/02/02 00:08:11;;;;;;;3.50;2.30;;;;;;;;;;4987539;28;20290;-57
2023/02/02 00:10:36;;;;;;;3.45;2.15;;;;;;;;;;5000778;28;20029;-56
2023/02/02 00:13:01;;;;;;;3.47;2.33;;;;;;;;;;4985619;28;20201;-57
2023/02/02 00:15:27;;;;;;;3.80;2.40;;;;;;;;;;4987175;28;20271;-58
2023/02/02 00:17:52;;;;;;;4.27;2.50;;;;;;;;;;5004904;28;20052;-57
2023/02/02 00:20:17;;;;;;;4.03;2.40;;;;;;;;;;5005582;28;20040;-57
2023/02/02 00:22:42;;;;;;;2.60;1.85;;;;;;;;;;5004942;28;20022;-57
2023/02/02 00:25:08;;;;;;;3.13;1.90;;;;;;;;;;5004650;28;20085;-57
2023/02/02 00:27:33;;;;;;;3.20;2.00;;;;;;;;;;5004793;28;20696;-56
2023/02/02 00:29:58;;;;;;;3.85;2.42;;;;;;;;;;5004626;28;20030;-56
2023/02/02 00:32:24;;;;;;;3.57;2.30;;;;;;;;;;5004734;28;20060;-56
2023/02/02 00:34:49;;;;;;;4.03;2.45;;;;;;;;;;4997841;28;20070;-58
2023/02/02 00:37:14;;;;;;;3.80;2.50;;;;;;;;;;4988957;28;20018;-55
2023/02/02 00:39:39;;;;;;;3.37;2.27;;;;;;;;;;4984779;28;20736;-57
2023/02/02 00:42:05;;;;;;;3.77;2.20;;;;;;;;;;4975058;28;20488;-57
2023/02/02 00:47:15;;;;;;;4.03;2.28;;;;;;;;;;4978384;28;20280;-60
2023/02/02 00:49:40;;;;;;;3.50;2.40;;;;;;;;;;4994612;28;20054;-57
2023/02/02 00:52:06;;;;;;;3.72;2.38;;;;;;;;;;4999373;28;20494;-57
2023/02/02 00:54:31;;;;;;;3.53;2.40;;;;;;;;;;4961115;28;20092;-56
2023/02/02 00:56:56;;;;;;;3.50;2.30;;;;;;;;;;4984464;28;20035;-56
2023/02/02 00:59:21;;;;;;;3.55;2.17;;;;;;;;;;4976532;28;20277;-58
2023/02/02 01:01:47;;;;;;;3.77;2.60;;;;;;;;;;4994348;28;20870;-57
2023/02/02 01:04:12;;;;;;;3.90;2.10;;;;;;;;;;4989822;28;20374;-57
2023/02/02 01:06:37;;;;;;;3.70;2.30;;;;;;;;;;5003843;28;20488;-56
2023/02/02 01:09:02;;;;;;;3.57;2.57;;;;;;;;;;5003963;28;20745;-57
2023/02/02 01:11:29;;;;;;;3.47;2.10;;;;;;;;;;5003298;28;20304;-56
2023/02/02 01:13:54;;;;;;;4.15;2.30;;;;;;;;;;4984700;28;20741;-58
2023/02/02 01:16:21;;;;;;;3.97;2.30;;;;;;;;;;4998256;28;20038;-55
2023/02/02 01:18:46;;;;;;;4.72;2.17;;;;;;;;;;5004489;28;21014;-57
2023/02/02 01:21:11;;;;;;;3.53;2.03;;;;;;;;;;4986215;28;20120;-56
2023/02/02 01:23:37;;;;;;;3.05;2.13;;;;;;;;;;4986531;28;20564;-57
2023/02/02 01:26:03;;;;;;;3.40;1.98;;;;;;;;;;5004401;28;20106;-58
2023/02/02 01:28:28;;;;;;;3.70;2.40;;;;;;;;;;5004806;28;20057;-57
2023/02/02 01:30:54;;;;;;;3.53;2.20;;;;;;;;;;4994884;28;20069;-57
2023/02/02 01:33:19;;;;;;;3.30;1.90;;;;;;;;;;4979714;28;20045;-56
2023/02/02 01:35:45;;;;;;;3.38;2.30;;;;;;;;;;4978176;28;20057;-56
2023/02/02 01:38:10;;;;;;;3.75;2.28;;;;;;;;;;4977721;28;20121;-57
2023/02/02 01:40:36;;;;;;;3.40;2.07;;;;;;;;;;4953362;28;20203;-56
2023/02/02 01:43:01;;;;;;;2.90;1.90;;;;;;;;;;4982459;28;20309;-57
2023/02/02 01:45:27;;;;;;;3.20;2.03;;;;;;;;;;4969951;28;20281;-57
2023/02/02 01:47:53;;;;;;;3.70;2.25;;;;;;;;;;4953922;28;20030;-56
2023/02/02 01:50:20;;;;;;;2.80;2.00;;;;;;;;;;4988339;28;20038;-57
2023/02/02 01:52:45;;;;;;;3.53;2.38;;;;;;;;;;4965744;28;20031;-57
2023/02/02 01:55:11;;;;;;;3.17;2.10;;;;;;;;;;4965892;28;20175;-57
2023/02/02 01:57:39;;;;;;;4.15;2.30;;;;;;;;;;4965334;28;20097;-57
2023/02/02 02:00:05;;;;;;;3.17;2.15;;;;;;;;;;4982816;28;20479;-57
2023/02/02 02:02:31;;;;;;;3.20;2.05;;;;;;;;;;4965894;28;20049;-56
2023/02/02 02:04:56;;;;;;;3.73;1.90;;;;;;;;;;4983253;28;20058;-56
2023/02/02 02:07:21;;;;;;;3.60;2.00;;;;;;;;;;4982779;28;20102;-57
2023/02/02 02:09:46;;;;;;;3.47;2.03;;;;;;;;;;4982795;28;20042;-57
2023/02/02 02:12:13;;;;;;;3.05;1.92;;;;;;;;;;4983571;28;20038;-57
2023/02/02 02:17:28;;;;;;;2.83;2.00;;;;;;;;;;4983333;28;20179;-56
2023/02/02 02:28:49;;;;;;;2.55;1.77;;;;;;;;;;4974888;28;20465;-56
2023/02/02 02:31:30;;;;;;;3.20;2.00;;;;;;;;;;4983344;28;20542;-57
2023/02/02 02:33:55;;;;;;;3.45;1.90;;;;;;;;;;4985280;28;20034;-56
2023/02/02 02:36:26;;;;;;;3.20;1.70;;;;;;;;;;5002398;28;20041;-58
2023/02/02 02:39:07;;;;;;;3.53;1.98;;;;;;;;;;5002756;28;20073;-57
2023/02/02 02:41:32;;;;;;;3.38;1.98;;;;;;;;;;4986201;28;20041;-55
2023/02/02 02:44:02;;;;;;;2.47;1.85;;;;;;;;;;4983578;28;20430;-57
2023/02/02 02:46:27;;;;;;;2.72;1.90;;;;;;;;;;4982024;28;20081;-57
2023/02/02 02:48:55;;;;;;;3.07;1.90;;;;;;;;;;4984871;28;20108;-57
2023/02/02 02:51:39;;;;;;;3.05;1.83;;;;;;;;;;4984756;28;20289;-58
2023/02/02 02:54:04;;;;;;;2.78;1.80;;;;;;;;;;4992458;28;20065;-58
2023/02/02 02:56:31;;;;;;;2.77;1.97;;;;;;;;;;5002126;28;20073;-57
2023/02/02 02:59:06;;;;;;;3.10;1.88;;;;;;;;;;5002694;28;20291;-56
2023/02/02 03:01:38;;;;;;;2.90;1.70;;;;;;;;;;4985175;28;20038;-57
2023/02/02 03:04:07;;;;;;;3.20;1.63;;;;;;;;;;4984668;28;20099;-57
2023/02/02 03:06:43;;;;;;;2.90;1.60;;;;;;;;;;4984664;28;20105;-57
2023/02/02 03:09:12;;;;;;;2.97;1.90;;;;;;;;;;4968901;28;20041;-57
2023/02/02 03:11:37;;;;;;;2.80;1.75;;;;;;;;;;4987678;28;20415;-56
2023/02/02 03:14:02;;;;;;;2.43;1.63;;;;;;;;;;5004996;28;20361;-56
2023/02/02 03:16:27;;;;;;;2.80;1.77;;;;;;;;;;5005928;28;20143;-56
2023/02/02 03:18:54;;;;;;;3.28;1.95;;;;;;;;;;5020580;28;20296;-54
2023/02/02 03:21:20;;;;;;;2.92;1.73;;;;;;;;;;4989093;28;20461;-58
2023/02/02 03:23:45;;;;;;;2.92;1.80;;;;;;;;;;4988239;28;20069;-60
2023/02/02 03:26:10;;;;;;;3.07;1.70;;;;;;;;;;5021402;28;20030;-57
2023/02/02 03:28:36;;;;;;;2.70;1.73;;;;;;;;;;5020467;28;20272;-55
2023/02/02 03:31:01;;;;;;;2.77;1.70;;;;;;;;;;4988205;28;20429;-57
2023/02/02 03:33:26;;;;;;;2.73;1.63;;;;;;;;;;5006108;28;20375;-56
2023/02/02 03:35:51;;;;;;;2.70;1.70;;;;;;;;;;4975625;28;20293;-58
2023/02/02 03:38:17;;;;;;;2.53;1.70;;;;;;;;;;4988386;28;20529;-56
2023/02/02 03:40:42;;;;;;;2.60;1.70;;;;;;;;;;5005639;28;20026;-57
2023/02/02 03:43:07;;;;;;;2.20;1.63;;;;;;;;;;5019545;28;20088;-56
2023/02/02 03:45:34;;;;;;;2.90;1.57;;;;;;;;;;5005341;28;20280;-57
2023/02/02 03:48:00;;;;;;;2.30;1.60;;;;;;;;;;4987743;28;20791;-57
2023/02/02 03:50:25;;;;;;;2.22;1.60;;;;;;;;;;4970185;28;20027;-58
2023/02/02 03:52:50;;;;;;;2.77;1.80;;;;;;;;;;5003202;28;20033;-58
2023/02/02 03:55:15;;;;;;;2.47;1.60;;;;;;;;;;5000109;28;20269;-56
2023/02/02 03:57:40;;;;;;;2.53;1.70;;;;;;;;;;5004631;28;20277;-55
2023/02/02 04:00:06;;;;;;;2.70;1.90;;;;;;;;;;5005466;28;20018;-57
2023/02/02 04:02:31;;;;;;;2.08;1.50;;;;;;;;;;5005495;28;20330;-56
2023/02/02 04:04:56;;;;;;;2.97;1.87;;;;;;;;;;5005102;28;20041;-57
2023/02/02 04:07:22;;;;;;;2.60;1.63;;;;;;;;;;5020621;28;20265;-58
2023/02/02 04:09:47;;;;;;;2.55;1.70;;;;;;;;;;5005164;28;20029;-58
2023/02/02 04:12:12;;;;;;;2.10;1.60;;;;;;;;;;5004983;28;20018;-57
2023/02/02 04:14:37;;;;;;;2.70;1.47;;;;;;;;;;5003101;28;21284;-57
2023/02/02 04:17:03;;;;;;;2.10;1.60;;;;;;;;;;5004590;28;20129;-56
2023/02/02 04:19:28;;;;;;;2.90;1.30;;;;;;;;;;5004444;28;20261;-56
2023/02/02 04:21:53;;;;;;;2.55;1.55;;;;;;;;;;4986299;28;20264;-57
2023/02/02 04:24:18;;;;;;;2.43;1.33;;;;;;;;;;5004292;28;20184;-55
2023/02/02 04:26:44;;;;;;;3.10;1.70;;;;;;;;;;5004679;28;20273;-57
2023/02/02 04:29:09;;;;;;;2.45;1.40;;;;;;;;;;4970608;28;20276;-57
2023/02/02 04:31:34;;;;;;;2.85;1.52;;;;;;;;;;5019484;28;20022;-56
2023/02/02 04:34:00;;;;;;;2.60;1.50;;;;;;;;;;4986614;28;20105;-57
2023/02/02 04:36:25;;;;;;;2.63;1.40;;;;;;;;;;4995802;28;20862;-57
2023/02/02 04:38:51;;;;;;;2.28;1.50;;;;;;;;;;4974240;28;20022;-56
2023/02/02 04:41:17;;;;;;;2.15;1.40;;;;;;;;;;4981911;28;20605;-59
2023/02/02 04:43:44;;;;;;;2.33;1.40;;;;;;;;;;4969465;28;20058;-58
2023/02/02 04:46:09;;;;;;;2.20;1.70;;;;;;;;;;4972058;28;20019;-56
2023/02/02 04:48:34;;;;;;;1.90;1.42;;;;;;;;;;4984068;28;20133;-57
2023/02/02 04:51:00;;;;;;;3.28;1.90;;;;;;;;;;4979508;28;20033;-56
2023/02/02 04:53:25;;;;;;;2.47;1.75;;;;;;;;;;4973846;28;20057;-57
2023/02/02 04:55:50;;;;;;;2.35;1.45;;;;;;;;;;4978465;28;20713;-56
2023/02/02 04:58:16;;;;;;;2.00;1.30;;;;;;;;;;4966514;28;20030;-57
2023/02/02 05:00:41;;;;;;;2.43;1.60;;;;;;;;;;4960931;28;20022;-58
2023/02/02 05:03:06;;;;;;;2.17;1.40;;;;;;;;;;4984369;28;20387;-55
2023/02/02 05:05:31;;;;;;;2.10;1.40;;;;;;;;;;4982423;28;20026;-56
2023/02/02 05:07:57;;;;;;;2.33;1.35;;;;;;;;;;4972272;28;20026;-56
2023/02/02 05:10:22;;;;;;;2.40;1.60;;;;;;;;;;4981713;28;25043;-57
2023/02/02 05:12:47;;;;;;;2.27;1.47;;;;;;;;;;4965148;28;20378;-57
2023/02/02 05:15:12;;;;;;;2.87;1.57;;;;;;;;;;4984009;28;20684;-56
2023/02/02 05:17:38;;;;;;;2.60;1.33;;;;;;;;;;4963576;28;20314;-57
2023/02/02 05:20:03;;;;;;;2.05;1.45;;;;;;;;;;4967236;28;20300;-55
2023/02/02 05:22:28;;;;;;;2.40;1.80;;;;;;;;;;4985528;28;20117;-55
2023/02/02 05:24:53;;;;;;;2.00;1.40;;;;;;;;;;4991035;28;20042;-56
2023/02/02 05:27:19;;;;;;;2.30;1.40;;;;;;;;;;4987771;28;20030;-56
2023/02/02 05:29:45;;;;;;;2.93;1.53;;;;;;;;;;4982069;28;20269;-56
2023/02/02 05:32:10;;;;;;;2.45;1.30;;;;;;;;;;4988715;28;20709;-56
2023/02/02 05:34:36;;;;;;;2.40;1.40;;;;;;;;;;4989121;28;20046;-55
2023/02/02 05:37:01;;;;;;;3.10;1.47;;;;;;;;;;4982890;28;20281;-56
2023/02/02 05:39:26;;;;;;;2.40;1.53;;;;;;;;;;4976385;28;20361;-56
2023/02/02 05:41:51;;;;;;;2.43;1.40;;;;;;;;;;5000439;28;20049;-56
2023/02/02 05:44:16;;;;;;;2.10;1.37;;;;;;;;;;4965162;28;20305;-57
2023/02/02 05:46:44;;;;;;;2.00;1.40;;;;;;;;;;5001648;28;20279;-57
2023/02/02 05:49:10;;;;;;;2.17;1.40;;;;;;;;;;4965594;28;20262;-56
2023/02/02 05:51:42;;;;;;;2.35;1.58;;;;;;;;;;4984374;28;20021;-56
2023/02/02 05:54:08;;;;;;;2.80;1.13;;;;;;;;;;4964950;28;20030;-56
2023/02/02 05:56:33;;;;;;;2.50;1.40;;;;;;;;;;4999861;28;20030;-57
2023/02/02 05:58:58;;;;;;;2.13;1.57;;;;;;;;;;4995189;28;20375;-57
2023/02/02 06:01:24;;;;;;;2.08;1.25;;;;;;;;;;5001293;28;20129;-57
2023/02/02 06:03:49;;;;;;;2.30;1.40;;;;;;;;;;4984243;28;20572;-58
2023/02/02 06:06:14;;;;;;;1.80;1.40;;;;;;;;;;4966565;28;20296;-59
2023/02/02 06:08:39;;;;;;;2.23;1.50;;;;;;;;;;4999505;28;20042;-57
2023/02/02 06:11:11;;;;;;;2.73;1.40;;;;;;;;;;4981234;28;20563;-57
2023/02/02 06:13:37;;;;;;;2.60;1.60;;;;;;;;;;4965604;28;20370;-57
2023/02/02 06:16:02;;;;;;;2.40;1.37;;;;;;;;;;4986966;28;20050;-56
2023/02/02 06:18:27;;;;;;;2.78;1.45;;;;;;;;;;4999823;28;20296;-57
2023/02/02 06:20:59;;;;;;;1.90;1.30;;;;;;;;;;4968646;28;20042;-56
2023/02/02 06:23:24;;;;;;;2.58;1.55;;;;;;;;;;4983410;28;20046;-57
2023/02/02 06:25:49;;;;;;;2.60;1.50;;;;;;;;;;4985713;28;20043;-56
2023/02/02 06:28:15;;;;;;;3.30;1.50;;;;;;;;;;4999832;28;20168;-57
2023/02/02 06:30:40;;;;;;;2.58;1.30;;;;;;;;;;4951436;28;20289;-57
2023/02/02 06:33:06;;;;;;;2.17;1.37;;;;;;;;;;4983206;28;20399;-57
2023/02/02 06:35:31;;;;;;;2.30;1.33;;;;;;;;;;4983171;28;20426;-59
2023/02/02 06:37:56;;;;;;;2.33;1.60;;;;;;;;;;4983293;28;20439;-57
2023/02/02 06:40:22;;;;;;;3.50;1.73;;;;;;;;;;4979775;28;20679;-56
2023/02/02 06:42:47;;;;;;;3.33;1.42;;;;;;;;;;4984765;28;20277;-58
2023/02/02 06:45:12;;;;;;;2.42;1.60;;;;;;;;;;4984416;28;20073;-57
2023/02/02 06:47:37;;;;;;;3.65;1.60;;;;;;;;;;5004582;28;20033;-55
2023/02/02 06:50:03;;;;;;;2.13;1.40;;;;;;;;;;4989253;28;20045;-55
2023/02/02 06:52:28;;;;;;;3.53;1.60;;;;;;;;;;4986494;28;20303;-55
2023/02/02 06:54:53;;;;;;;3.80;1.60;;;;;;;;;;4985148;28;20058;-57
2023/02/02 06:57:18;;;;;;;2.63;1.40;;;;;;;;;;4991859;28;20292;-59
2023/02/02 06:59:44;;;;;;;2.80;1.57;;;;;;;;;;4969132;28;20123;-56
2023/02/02 07:02:10;;;;;;;2.83;1.55;;;;;;;;;;4967306;28;20133;-56
2023/02/02 07:04:35;;;;;;;2.83;1.58;;;;;;;;;;4986742;28;20039;-56
2023/02/02 07:07:00;;;;;;;2.20;1.33;;;;;;;;;;4985644;28;20359;-57
2023/02/02 07:09:26;;;;;;;2.87;1.40;;;;;;;;;;5004857;28;20394;-56
2023/02/02 07:11:51;;;;;;;3.00;1.60;;;;;;;;;;4987558;28;20422;-56
2023/02/02 07:14:16;;;;;;;3.25;1.73;;;;;;;;;;4985274;28;20051;-56
2023/02/02 07:16:41;;;;;;;2.40;1.60;;;;;;;;;;5002222;28;20512;-56
2023/02/02 07:19:07;;;;;;;2.47;1.67;;;;;;;;;;4988199;28;20522;-56
2023/02/02 07:21:34;;;;;;;2.40;1.40;;;;;;;;;;4986461;28;20482;-56
2023/02/02 07:23:59;;;;;;;3.05;1.45;;;;;;;;;;4986578;28;20092;-58
2023/02/02 07:26:26;;;;;;;2.50;1.60;;;;;;;;;;4966494;28;20042;-55
2023/02/02 07:28:51;;;;;;;2.65;1.60;;;;;;;;;;5001392;28;20469;-56
2023/02/02 07:31:17;;;;;;;2.15;1.40;;;;;;;;;;5003400;28;20124;-56
2023/02/02 07:33:42;;;;;;;3.33;1.65;;;;;;;;;;4995158;28;20080;-59
2023/02/02 07:36:08;;;;;;;2.38;1.40;;;;;;;;;;5005955;28;20042;-57
2023/02/02 07:38:33;;;;;;;2.88;1.58;;;;;;;;;;5002369;28;20050;-57
2023/02/02 07:41:02;;;;;;;3.07;1.80;;;;;;;;;;4995360;28;20042;-60
2023/02/02 07:43:27;;;;;;;2.97;1.60;;;;;;;;;;4984389;28;21070;-58
2023/02/02 07:45:52;;;;;;;2.83;1.50;;;;;;;;;;4961929;28;20077;-57
2023/02/02 07:48:17;;;;;;;1.93;1.40;;;;;;;;;;4949961;28;20088;-60
2023/02/02 07:50:42;;;;;;;3.33;1.50;;;;;;;;;;5001103;28;20332;-56
2023/02/02 07:53:08;;;;;;;2.80;1.50;;;;;;;;;;4979117;28;20050;-58
2023/02/02 07:55:33;;;;;;;2.50;1.67;;;;;;;;;;4984234;28;20293;-57
2023/02/02 07:57:58;;;;;;;3.03;1.50;;;;;;;;;;4983949;28;20048;-57
2023/02/02 08:00:24;;;;;;;5.40;1.65;;;;;;;;;;4984794;28;20298;-55
2023/02/02 08:02:49;;;;;;;3.03;1.58;;;;;;;;;;4985414;28;20044;-60
2023/02/02 08:05:15;;;;;;;2.97;1.42;;;;;;;;;;5006116;28;20538;-62
2023/02/02 08:07:40;;;;;;;2.92;1.60;;;;;;;;;;4986506;28;20069;-56
2023/02/02 08:10:05;;;;;;;2.72;1.42;;;;;;;;;;4987776;28;20028;-57
2023/02/02 08:12:30;;;;;;;2.83;1.33;;;;;;;;;;4986540;28;20026;-58
2023/02/02 08:14:57;;;;;;;2.53;1.58;;;;;;;;;;5004589;28;20021;-56
2023/02/02 08:17:23;;;;;;;3.22;1.75;;;;;;;;;;5005696;28;20018;-56
2023/02/02 08:19:48;;;;;;;3.28;1.42;;;;;;;;;;4987662;28;20029;-56
2023/02/02 08:22:13;;;;;;;2.93;1.50;;;;;;;;;;4987007;28;20456;-56
2023/02/02 08:24:41;;;;;;;2.22;1.33;;;;;;;;;;4967991;28;20289;-57
2023/02/02 08:27:07;;;;;;;4.60;1.50;;;;;;;;;;4984435;28;20018;-58
2023/02/02 08:29:32;;;;;;;2.95;1.55;;;;;;;;;;4967797;28;20037;-55
2023/02/02 08:31:58;;;;;;;2.70;1.65;;;;;;;;;;4969929;28;20025;-58
2023/02/02 08:34:24;;;;;;;2.47;1.40;;;;;;;;;;4946246;28;20050;-56
2023/02/02 08:36:49;;;;;;;2.85;1.60;;;;;;;;;;4993664;28;20113;-58
2023/02/02 08:39:14;;;;;;;3.20;1.60;;;;;;;;;;4987185;28;20132;-60
2023/02/02 08:41:40;;;;;;;2.63;1.65;;;;;;;;;;4992319;28;21015;-56
2023/02/02 08:44:08;;;;;;;2.90;1.50;;;;;;;;;;4966069;28;20088;-55
2023/02/02 08:46:33;;;;;;;2.35;1.30;;;;;;;;;;4978886;28;20276;-56
2023/02/02 08:48:58;;;;;;;2.60;1.23;;;;;;;;;;4968978;28;20018;-56
2023/02/02 08:51:23;;;;;;;2.23;1.50;;;;;;;;;;4983125;28;20265;-57
2023/02/02 08:53:49;;;;;;;3.13;1.50;;;;;;;;;;4984559;28;20088;-55
2023/02/02 08:56:18;;;;;;;2.93;1.60;;;;;;;;;;4982688;28;20018;-55
2023/02/02 08:58:47;;;;;;;1.85;1.27;;;;;;;;;;4983616;28;20057;-55
2023/02/02 09:01:13;;;;;;;3.35;1.65;;;;;;;;;;4981296;28;20030;-57
2023/02/02 09:03:39;;;;;;;2.22;1.50;;;;;;;;;;4966005;28;20054;-57
2023/02/02 09:06:05;;;;;;;2.50;1.58;;;;;;;;;;4983056;28;20035;-58
2023/02/02 09:08:32;;;;;;;2.53;1.40;;;;;;;;;;4983632;28;20069;-57
2023/02/02 09:11:01;;;;;;;3.28;1.65;;;;;;;;;;4983529;28;20039;-56
2023/02/02 09:13:26;;;;;;;3.40;1.87;;;;;;;;;;4988089;28;20073;-55
2023/02/02 09:15:51;;;;;;;3.00;1.20;;;;;;;;;;4980150;28;20058;-59
2023/02/02 09:18:17;;;;;;;2.70;1.50;;;;;;;;;;4969766;28;20889;-55
2023/02/02 09:20:42;;;;;;;2.47;1.50;;;;;;;;;;4998878;28;20027;-56
2023/02/02 09:23:07;;;;;;;3.22;1.77;;;;;;;;;;4986843;28;20280;-56
2023/02/02 09:25:32;;;;;;;2.90;1.50;;;;;;;;;;5001530;28;20042;-56
2023/02/02 09:27:58;;;;;;;3.20;1.50;;;;;;;;;;4984396;28;20033;-55
2023/02/02 09:30:23;;;;;;;2.93;1.50;;;;;;;;;;5000157;28;20036;-56
2023/02/02 09:32:49;;;;;;;2.47;1.60;;;;;;;;;;4985501;28;20064;-56
2023/02/02 09:35:15;;;;;;;3.47;1.60;;;;;;;;;;4985013;28;20050;-56
2023/02/02 09:37:40;;;;;;;3.35;1.75;;;;;;;;;;4985564;28;20030;-57
2023/02/02 09:40:06;;;;;;;3.08;1.60;;;;;;;;;;4985410;28;20040;-56
2023/02/02 09:42:47;;;;;;;3.42;1.75;;;;;;;;;;4998341;28;20030;-56
2023/02/02 09:45:19;;;;;;;3.20;1.70;;;;;;;;;;4968195;28;20050;-57
2023/02/02 09:47:54;;;;;;;2.83;1.60;;;;;;;;;;4994018;28;20036;-58
2023/02/02 09:50:25;;;;;;;2.72;1.55;;;;;;;;;;5003333;28;20494;-58
2023/02/02 09:52:55;;;;;;;2.58;1.60;;;;;;;;;;4990649;28;20045;-57
2023/02/02 09:55:21;;;;;;;;;;;;;;;;;;4969913;28;20069;-56
2023/02/02 09:57:51;;;;;;;2.88;1.50;;;;;;;;;;4988276;28;20374;-59
2023/02/02 10:00:22;;;;;;;2.65;1.40;;;;;;;;;;4987826;28;20459;-56
2023/02/02 10:02:48;;;;;;;3.75;1.77;;;;;;;;;;4977312;28;20030;-58
2023/02/02 10:05:21;;;;;;;2.72;1.48;;;;;;;;;;4972245;28;20053;-55
2023/02/02 10:07:50;;;;;;;2.45;1.67;;;;;;;;;;5012563;28;20064;-56
2023/02/02 10:10:39;;;;;;;2.87;1.67;;;;;;;;;;4979003;28;20050;-55
2023/02/02 10:13:05;;;;;;;2.85;1.67;;;;;;;;;;4976359;28;20407;-56
2023/02/02 10:16:04;;;;;;;3.08;1.60;;;;;;;;;;4965566;28;20053;-57
2023/02/02 10:18:32;;;;;;;2.35;1.50;;;;;;;;;;4938068;28;20199;-56
2023/02/02 10:21:09;;;;;;;3.90;1.88;;;;;;;;;;4983342;28;20069;-57
2023/02/02 10:23:41;;;;;;;2.35;1.40;;;;;;;;;;4966860;28;20100;-57
2023/02/02 10:26:12;;;;;;;2.90;1.50;;;;;;;;;;4984426;28;20065;-57
2023/02/02 10:29:01;;;;;;;2.55;1.50;;;;;;;;;;5000139;28;20096;-56
2023/02/02 10:31:45;;;;;;;1.98;1.20;;;;;;;;;;4987959;28;20052;-57
2023/02/02 10:34:20;;;;;;;4.43;1.58;;;;;;;;;;4998783;28;20050;-57
2023/02/02 10:36:49;;;;;;;3.22;1.63;;;;;;;;;;4964674;28;20043;-56
2023/02/02 10:39:18;;;;;;;3.35;1.42;;;;;;;;;;4966335;28;20038;-57
2023/02/02 10:41:46;;;;;;;3.38;1.50;;;;;;;;;;4995739;28;20038;-56
2023/02/02 10:44:14;;;;;;;2.67;1.65;;;;;;;;;;4981188;28;20542;-57
2023/02/02 10:46:42;;;;;;;2.80;1.60;;;;;;;;;;4983802;28;20035;-58
2023/02/02 10:49:13;;;;;;;3.78;1.60;;;;;;;;;;4965230;28;20038;-57
2023/02/02 10:51:40;;;;;;;3.55;1.65;;;;;;;;;;4980241;28;20450;-57
2023/02/02 10:54:07;;;;;;;4.05;1.90;;;;;;;;;;4983449;28;20031;-57
2023/02/02 10:56:34;;;;;;;4.90;1.90;;;;;;;;;;4980840;28;20097;-56
2023/02/02 10:58:59;;;;;;;2.63;1.33;;;;;;;;;;4982060;28;20062;-57
2023/02/02 11:01:25;;;;;;;3.07;1.80;;;;;;;;;;4997510;28;20073;-57
2023/02/02 11:06:48;;;;;;;2.85;1.58;;;;;;;;;;4981726;28;20053;-58
2023/02/02 11:06:51;;;;;;;2.30;1.70;;;;;;;;;;4981814;28;20043;-57
2023/02/02 11:09:23;;;;;;;2.70;1.50;;;;;;;;;;4981645;28;20161;-57
2023/02/02 11:12:11;;;;;;;3.45;1.60;;;;;;;;;;4982093;28;20061;-57
2023/02/02 11:14:39;;;;;;;2.63;1.35;;;;;;;;;;4978654;28;20113;-57
2023/02/02 11:17:05;;;;;;;3.28;1.52;;;;;;;;;;4962055;28;20168;-58
2023/02/02 11:19:31;;;;;;;2.83;1.52;;;;;;;;;;4981481;28;20050;-57
2023/02/02 11:21:57;;;;;;;2.65;1.50;;;;;;;;;;4980608;28;20038;-58
2023/02/02 11:24:26;;;;;;;3.35;1.65;;;;;;;;;;4982922;28;20057;-57
2023/02/02 11:27:02;;;;;;;2.47;1.47;;;;;;;;;;4981539;28;20034;-57
2023/02/02 11:29:30;;;;;;;2.88;1.58;;;;;;;;;;4982107;28;20046;-56
2023/02/02 11:31:55;;;;;;;11.85;2.58;;;;;;;;;;4980166;28;20038;-57
2023/02/02 11:34:21;;;;;;;9.30;2.10;;;;;;;;;;4989600;28;20525;-56
2023/02/02 11:36:57;;;;;;;6.22;2.15;;;;;;;;;;5004305;28;20501;-56
2023/02/02 11:39:22;;;;;;;9.30;1.90;;;;;;;;;;5005913;28;20038;-56
2023/02/02 11:41:47;;;;;;;5.07;1.73;;;;;;;;;;4988857;28;20048;-58
2023/02/02 11:44:19;;;;;;;6.22;1.80;;;;;;;;;;4969573;28;20381;-58
2023/02/02 11:46:44;;;;;;;5.45;1.50;;;;;;;;;;4969854;28;20034;-57
2023/02/02 11:49:15;;;;;;;7.35;1.75;;;;;;;;;;4970191;28;20037;-56
2023/02/02 11:51:40;;;;;;;4.10;1.77;;;;;;;;;;4965467;28;20033;-56
2023/02/02 11:54:06;;;;;;;5.10;1.90;;;;;;;;;;4985681;28;20521;-56
2023/02/02 11:56:32;;;;;;;4.65;1.75;;;;;;;;;;4984414;28;20105;-57
2023/02/02 11:58:59;;;;;;;5.05;1.85;;;;;;;;;;4998494;28;20069;-57
2023/02/02 12:01:25;;;;;;;3.13;1.70;;;;;;;;;;4984044;28;20045;-57
2023/02/02 12:03:50;;;;;;;4.93;1.60;;;;;;;;;;4985633;28;20050;-57
2023/02/02 12:06:22;;;;;;;4.20;1.70;;;;;;;;;;4980114;28;20329;-55
2023/02/02 12:08:48;;;;;;;4.28;1.60;;;;;;;;;;4967506;28;20034;-56
2023/02/02 12:11:32;;;;;;;3.83;2.03;;;;;;;;;;4967363;28;20041;-57
2023/02/02 12:14:11;;;;;;;2.97;1.80;;;;;;;;;;4983111;28;20306;-56
2023/02/02 12:16:39;;;;;;;6.47;1.70;;;;;;;;;;4981340;28;20046;-55
2023/02/02 12:19:04;;;;;;;4.53;1.75;;;;;;;;;;4982134;28;20505;-56
2023/02/02 12:21:48;;;;;;;4.57;1.83;;;;;;;;;;5001282;28;20058;-57
2023/02/02 12:24:20;;;;;;;4.43;1.67;;;;;;;;;;5001728;28;20053;-57
2023/02/02 12:26:48;;;;;;;4.45;1.70;;;;;;;;;;4966452;28;20450;-57
2023/02/02 12:29:22;;;;;;;3.65;1.52;;;;;;;;;;4985444;28;20026;-56
2023/02/02 12:32:06;;;;;;;3.83;1.60;;;;;;;;;;5002853;28;20065;-57
2023/02/02 12:34:34;;;;;;;4.50;1.80;;;;;;;;;;5003395;28;20060;-56
2023/02/02 12:37:05;;;;;;;3.90;1.85;;;;;;;;;;5005019;28;20049;-56
2023/02/02 12:39:50;;;;;;;4.57;1.60;;;;;;;;;;5001124;28;20050;-58
2023/02/02 12:42:27;;;;;;;4.30;1.38;;;;;;;;;;5003380;28;20041;-56
2023/02/02 12:45:11;;;;;;;3.97;1.70;;;;;;;;;;4986521;28;20153;-57
2023/02/02 12:47:46;;;;;;;4.50;1.65;;;;;;;;;;5007137;28;20108;-58
2023/02/02 12:50:17;;;;;;;4.15;1.40;;;;;;;;;;4995241;28;20037;-57
2023/02/02 12:52:54;;;;;;;3.42;1.60;;;;;;;;;;5003242;28;20025;-57
2023/02/02 12:55:25;;;;;;;3.50;1.50;;;;;;;;;;4987280;28;20070;-54
2023/02/02 12:57:57;;;;;;;2.72;1.48;;;;;;;;;;4994892;28;20508;-58
2023/02/02 13:00:41;;;;;;;3.67;1.48;;;;;;;;;;5001610;28;20421;-57
2023/02/02 13:03:09;;;;;;;3.60;1.50;;;;;;;;;;5000531;28;20057;-57
2023/02/02 13:05:41;;;;;;;3.53;1.40;;;;;;;;;;5001047;28;20165;-58
2023/02/02 13:08:16;;;;;;;3.42;1.60;;;;;;;;;;4985183;28;20041;-58
2023/02/02 13:10:41;;;;;;;3.42;1.52;;;;;;;;;;5003047;28;20545;-56
2023/02/02 13:13:11;;;;;;;2.97;1.70;;;;;;;;;;4986252;28;20091;-62
2023/02/02 13:15:38;;;;;;;2.95;1.88;;;;;;;;;;4966702;28;20053;-56
2023/02/02 13:18:05;;;;;;;3.13;1.60;;;;;;;;;;4985832;28;20040;-57
2023/02/02 13:20:41;;;;;;;3.53;1.50;;;;;;;;;;4969099;28;20053;-56
2023/02/02 13:23:12;;;;;;;3.03;1.83;;;;;;;;;;4984608;28;20108;-56
2023/02/02 13:25:48;;;;;;;3.35;1.70;;;;;;;;;;5001872;28;20045;-58
2023/02/02 13:28:24;;;;;;;3.80;1.75;;;;;;;;;;4983479;28;20034;-57
2023/02/02 13:30:50;;;;;;;2.80;1.60;;;;;;;;;;4982943;28;20037;-58
2023/02/02 13:33:16;;;;;;;3.08;1.20;;;;;;;;;;4984989;28;20038;-58
2023/02/02 13:35:44;;;;;;;2.40;1.40;;;;;;;;;;4969297;28;20145;-62
2023/02/02 13:38:15;;;;;;;3.15;1.55;;;;;;;;;;4985250;28;20038;-58
2023/02/02 13:40:41;;;;;;;2.88;2.00;;;;;;;;;;4984993;28;20076;-58
2023/02/02 13:43:12;;;;;;;2.70;1.30;;;;;;;;;;5002118;28;20065;-58
2023/02/02 13:45:43;;;;;;;2.42;1.40;;;;;;;;;;5000186;28;20545;-55
2023/02/02 13:48:26;;;;;;;4.63;1.52;;;;;;;;;;4988605;28;20042;-57
2023/02/02 13:51:10;;;;;;;2.78;1.60;;;;;;;;;;5002131;28;20040;-56
2023/02/02 13:54:02;;;;;;;3.10;1.60;;;;;;;;;;5003244;28;20046;-57
2023/02/02 13:56:27;;;;;;;5.90;1.67;;;;;;;;;;4988602;28;20077;-58
2023/02/02 13:59:11;;;;;;;3.87;1.40;;;;;;;;;;4998983;28;20050;-60
2023/02/02 14:01:36;;;;;;;4.68;1.48;;;;;;;;;;4993723;28;20301;-58
2023/02/02 14:04:03;;;;;;;3.73;1.43;;;;;;;;;;4985534;28;20115;-60
2023/02/02 14:06:29;;;;;;;2.85;1.52;;;;;;;;;;5003198;28;20288;-58
2023/02/02 14:08:59;;;;;;;4.55;1.58;;;;;;;;;;4985901;28;20046;-63
2023/02/02 14:11:25;;;;;;;2.83;1.60;;;;;;;;;;5002363;28;20046;-59
2023/02/02 14:16:35;;;;;;;3.60;1.45;;;;;;;;;;5009548;28;20049;-58
2023/02/02 14:19:01;;;;;;;3.53;1.50;;;;;;;;;;5009066;28;20038;-58
2023/02/02 14:21:32;;;;;;;2.95;1.60;;;;;;;;;;4982608;28;20277;-59
2023/02/02 14:23:57;;;;;;;3.10;1.60;;;;;;;;;;4984148;28;20050;-57
2023/02/02 14:26:41;;;;;;;3.87;1.70;;;;;;;;;;5001166;28;20041;-59
2023/02/02 14:29:28;;;;;;;2.25;1.35;;;;;;;;;;4985472;28;20041;-57
2023/02/02 14:31:53;;;;;;;4.57;1.70;;;;;;;;;;4981482;28;20050;-58
2023/02/02 14:34:25;;;;;;;2.45;1.42;;;;;;;;;;4999804;28;20132;-59
2023/02/02 14:37:11;;;;;;;2.58;1.50;;;;;;;;;;4999056;28;20042;-59
2023/02/02 14:39:39;;;;;;;2.05;1.38;;;;;;;;;;4972190;28;20069;-59
2023/02/02 14:45:10;;;;;;;2.63;1.33;;;;;;;;;;5000009;28;20184;-58
2023/02/02 14:47:44;;;;;;;2.30;1.30;;;;;;;;;;5000471;28;20795;-61
2023/02/02 14:50:28;;;;;;;2.45;1.42;;;;;;;;;;5002484;28;20117;-57
2023/02/02 14:53:17;;;;;;;2.00;1.23;;;;;;;;;;5000098;28;20121;-57
2023/02/02 14:55:48;;;;;;;3.78;2.00;;;;;;;;;;4996570;28;20048;-59
2023/02/02 14:58:17;;;;;;;3.60;1.88;;;;;;;;;;5001163;28;20069;-57
2023/02/02 15:00:43;;;;;;;2.97;1.37;;;;;;;;;;4988205;28;20013;-59
2023/02/02 15:03:27;;;;;;;3.33;1.40;;;;;;;;;;5001107;28;20050;-59
2023/02/02 15:06:00;;;;;;;2.70;1.50;;;;;;;;;;4999992;28;20730;-57
2023/02/02 15:08:25;;;;;;;3.00;1.63;;;;;;;;;;4971379;28;20037;-60